Time;durP1;ratioP1;P1;durP2;ratioP2;P2;SDS_P1;SDS_P2;PMS_P1;PMS_P2;Temp;Humidity;BMP_temperature;BMP_pressure;BME280_temperature;BME280_humidity;BME280_pressure;Samples;Min_cycle;Max_cycle;Signal;HPM_P1;HPM_P2
2022/12/09 00:02:03;;;;;;;;;55.25;41.75;;;;;;;;5056259;28;45616;-83
2022/12/09 00:04:28;;;;;;;;;53.25;38.00;;;;;;;;5054002;28;45789;-81
2022/12/09 00:06:54;;;;;;;;;51.25;38.75;;;;;;;;5052687;28;46201;-82
2022/12/09 00:09:19;;;;;;;;;40.75;30.25;;;;;;;;5052861;28;45712;-83
2022/12/09 00:11:45;;;;;;;;;53.00;39.75;;;;;;;;5035123;28;45407;-82
2022/12/09 00:14:14;;;;;;;;;47.25;38.00;;;;;;;;5060644;28;46588;-82
2022/12/09 00:16:39;;;;;;;;;52.50;35.00;;;;;;;;5054202;28;45867;-83
2022/12/09 00:19:08;;;;;;;;;51.00;37.00;;;;;;;;5038690;28;45473;-83
2022/12/09 00:21:33;;;;;;;;;46.00;36.50;;;;;;;;5040323;28;45872;-83
2022/12/09 00:24:00;;;;;;;;;45.75;37.25;;;;;;;;5069001;28;45426;-81
2022/12/09 00:26:26;;;;;;;;;47.25;35.25;;;;;;;;5059632;28;45426;-82
2022/12/09 00:28:52;;;;;;;;;42.25;34.25;;;;;;;;5062223;28;45846;-83
2022/12/09 00:31:23;;;;;;;;;38.50;31.75;;;;;;;;5057574;28;45404;-83
2022/12/09 00:33:50;;;;;;;;;37.75;33.50;;;;;;;;5038826;28;46778;-83
2022/12/09 00:36:18;;;;;;;;;31.75;30.25;;;;;;;;5064513;28;46405;-83
2022/12/09 00:38:43;;;;;;;;;51.50;39.75;;;;;;;;5066463;28;45636;-82
2022/12/09 00:41:12;;;;;;;;;46.00;37.00;;;;;;;;5048088;28;45698;-82
2022/12/09 00:43:41;;;;;;;;;55.50;39.25;;;;;;;;5038055;28;45482;-81
2022/12/09 00:46:06;;;;;;;;;51.25;37.25;;;;;;;;5038742;28;45496;-84
2022/12/09 00:48:37;;;;;;;;;51.25;39.00;;;;;;;;5040324;28;45442;-82
2022/12/09 00:51:05;;;;;;;;;45.75;36.75;;;;;;;;5043059;28;46165;-81
2022/12/09 00:53:31;;;;;;;;;39.50;33.75;;;;;;;;5054901;28;45780;-83
2022/12/09 00:55:56;;;;;;;;;44.75;35.00;;;;;;;;5039776;28;45584;-82
2022/12/09 00:58:22;;;;;;;;;49.50;38.25;;;;;;;;5040606;28;45513;-83
2022/12/09 01:00:48;;;;;;;;;38.75;34.25;;;;;;;;5038066;28;45432;-82
2022/12/09 01:03:14;;;;;;;;;45.00;35.75;;;;;;;;5059960;28;45652;-83
2022/12/09 01:05:42;;;;;;;;;46.75;36.25;;;;;;;;5060556;28;45790;-82
2022/12/09 01:08:07;;;;;;;;;41.75;31.75;;;;;;;;5054035;28;45420;-83
2022/12/09 01:10:33;;;;;;;;;43.00;31.75;;;;;;;;5056296;28;45466;-83
2022/12/09 01:12:58;;;;;;;;;47.50;35.00;;;;;;;;5031839;28;45756;-81
2022/12/09 01:15:24;;;;;;;;;48.25;37.25;;;;;;;;5035630;28;46913;-81
2022/12/09 01:17:49;;;;;;;;;38.00;30.50;;;;;;;;5050859;28;45819;-81
2022/12/09 01:20:15;;;;;;;;;46.00;32.25;;;;;;;;5034165;28;45838;-82
2022/12/09 01:22:40;;;;;;;;;38.25;31.75;;;;;;;;5053920;28;45767;-82
2022/12/09 01:25:06;;;;;;;;;45.00;30.50;;;;;;;;5036229;28;47473;-82
2022/12/09 01:27:31;;;;;;;;;43.25;32.50;;;;;;;;5054976;28;45791;-82
2022/12/09 01:29:58;;;;;;;;;49.50;33.25;;;;;;;;5055517;28;45422;-82
2022/12/09 01:32:23;;;;;;;;;46.00;35.50;;;;;;;;5039486;28;45846;-82
2022/12/09 01:34:49;;;;;;;;;36.75;33.75;;;;;;;;5038081;28;47047;-83
2022/12/09 01:37:14;;;;;;;;;43.50;32.25;;;;;;;;5036165;28;45445;-81
2022/12/09 01:39:39;;;;;;;;;45.75;38.00;;;;;;;;5034347;28;45333;-82
2022/12/09 01:42:05;;;;;;;;;41.25;34.50;;;;;;;;5031270;28;46915;-81
2022/12/09 01:44:31;;;;;;;;;52.25;36.25;;;;;;;;5041818;28;46596;-82
2022/12/09 01:46:57;;;;;;;;;38.25;30.75;;;;;;;;5057805;28;45455;-82
2022/12/09 01:49:29;;;;;;;;;41.00;32.25;;;;;;;;5036591;28;45878;-81
2022/12/09 01:52:01;;;;;;;;;41.25;32.00;;;;;;;;5050603;28;45360;-82
2022/12/09 01:54:27;;;;;;;;;45.75;34.50;;;;;;;;5052016;28;46219;-81
2022/12/09 01:56:54;;;;;;;;;50.00;30.75;;;;;;;;5044141;28;45722;-82
2022/12/09 01:59:20;;;;;;;;;43.00;34.25;;;;;;;;5051156;28;45315;-81
2022/12/09 02:01:49;;;;;;;;;37.75;35.00;;;;;;;;5076763;28;45627;-82
2022/12/09 02:04:14;;;;;;;;;48.25;35.00;;;;;;;;5062696;28;47217;-82
2022/12/09 02:06:40;;;;;;;;;44.00;34.25;;;;;;;;5074165;28;45417;-82
2022/12/09 02:09:05;;;;;;;;;45.75;28.50;;;;;;;;5066397;28;45126;-82
2022/12/09 02:11:36;;;;;;;;;42.75;34.50;;;;;;;;5061739;28;45776;-84
2022/12/09 02:14:02;;;;;;;;;52.50;37.00;;;;;;;;5062798;28;45713;-84
2022/12/09 02:16:30;;;;;;;;;40.75;35.25;;;;;;;;5064918;28;45410;-82
2022/12/09 02:18:59;;;;;;;;;49.50;36.50;;;;;;;;5046619;28;45020;-81
2022/12/09 02:21:43;;;;;;;;;46.75;33.50;;;;;;;;5062970;28;45569;-82
2022/12/09 02:24:15;;;;;;;;;47.25;38.00;;;;;;;;5060736;28;45780;-80
2022/12/09 02:26:43;;;;;;;;;52.25;37.75;;;;;;;;5039801;28;45805;-82
2022/12/09 02:29:19;;;;;;;;;42.00;33.00;;;;;;;;5055977;28;45728;-83
2022/12/09 02:32:03;;;;;;;;;42.50;35.50;;;;;;;;5057544;28;45848;-82
2022/12/09 02:34:32;;;;;;;;;44.75;33.00;;;;;;;;5038960;28;46552;-82
2022/12/09 02:36:57;;;;;;;;;40.25;32.75;;;;;;;;5036385;28;45621;-81
2022/12/09 02:39:52;;;;;;;;;49.00;38.00;;;;;;;;5035311;28;45458;-80
2022/12/09 02:42:20;;;;;;;;;45.25;35.25;;;;;;;;5049482;28;45529;-82
2022/12/09 02:44:47;;;;;;;;;42.75;31.50;;;;;;;;5038793;28;46686;-81
2022/12/09 02:47:14;;;;;;;;;47.50;33.50;;;;;;;;5042780;28;45663;-81
2022/12/09 02:49:40;;;;;;;;;37.00;28.00;;;;;;;;5058506;28;45609;-81
2022/12/09 02:52:06;;;;;;;;;39.75;29.50;;;;;;;;5049758;28;45436;-82
2022/12/09 02:54:32;;;;;;;;;32.75;22.50;;;;;;;;5054957;28;47146;-82
2022/12/09 02:57:01;;;;;;;;;39.25;29.50;;;;;;;;5067959;28;45525;-81
2022/12/09 02:59:26;;;;;;;;;36.75;31.75;;;;;;;;5037797;28;45765;-82
2022/12/09 03:02:00;;;;;;;;;33.50;27.25;;;;;;;;5054947;28;45807;-82
2022/12/09 03:04:27;;;;;;;;;27.75;24.75;;;;;;;;5038522;28;46481;-82
2022/12/09 03:06:53;;;;;;;;;37.50;31.50;;;;;;;;5050101;28;45111;-81
2022/12/09 03:09:28;;;;;;;;;45.25;31.50;;;;;;;;5039479;28;45354;-81
2022/12/09 03:11:56;;;;;;;;;33.00;30.00;;;;;;;;5049789;28;46895;-82
2022/12/09 03:14:26;;;;;;;;;40.75;33.00;;;;;;;;5037483;28;46950;-80
2022/12/09 03:16:56;;;;;;;;;43.25;25.75;;;;;;;;5058107;28;45868;-83
2022/12/09 03:19:25;;;;;;;;;30.00;24.25;;;;;;;;5057723;28;45635;-81
2022/12/09 03:21:53;;;;;;;;;31.25;24.75;;;;;;;;5054805;28;45561;-82
2022/12/09 03:24:21;;;;;;;;;35.25;28.50;;;;;;;;5055749;28;46315;-82
2022/12/09 03:26:48;;;;;;;;;39.75;25.00;;;;;;;;5056817;28;45558;-82
2022/12/09 03:29:20;;;;;;;;;27.00;19.00;;;;;;;;5047015;28;45508;-82
2022/12/09 03:31:46;;;;;;;;;20.25;16.00;;;;;;;;5035511;28;46503;-81
2022/12/09 03:34:14;;;;;;;;;30.00;18.25;;;;;;;;5049499;28;45867;-80
2022/12/09 03:36:41;;;;;;;;;30.00;23.25;;;;;;;;5038635;28;45869;-79
2022/12/09 03:39:13;;;;;;;;;33.75;23.50;;;;;;;;5058537;28;45419;-82
2022/12/09 03:41:43;;;;;;;;;25.75;21.25;;;;;;;;5040750;28;47006;-81
2022/12/09 03:44:15;;;;;;;;;24.00;24.00;;;;;;;;5055849;28;45488;-79
2022/12/09 03:46:40;;;;;;;;;28.25;21.75;;;;;;;;5041553;28;45443;-81
2022/12/09 03:49:06;;;;;;;;;31.00;25.00;;;;;;;;5066454;28;45398;-80
2022/12/09 03:51:37;;;;;;;;;28.50;19.75;;;;;;;;5061704;28;45490;-80
2022/12/09 03:54:02;;;;;;;;;27.50;20.75;;;;;;;;5061213;28;45337;-80
2022/12/09 03:56:31;;;;;;;;;26.00;20.75;;;;;;;;5043366;28;45473;-80
2022/12/09 03:58:57;;;;;;;;;26.50;18.75;;;;;;;;5039544;28;45360;-82
2022/12/09 04:01:24;;;;;;;;;19.75;18.25;;;;;;;;5056468;28;45759;-81
2022/12/09 04:03:51;;;;;;;;;26.50;21.75;;;;;;;;5038334;28;45516;-81
2022/12/09 04:06:16;;;;;;;;;25.25;18.75;;;;;;;;5035777;28;45410;-81
2022/12/09 04:08:41;;;;;;;;;26.50;21.00;;;;;;;;5034379;28;45433;-81
2022/12/09 04:11:07;;;;;;;;;28.00;20.25;;;;;;;;5039018;28;47312;-81
2022/12/09 04:13:32;;;;;;;;;27.25;20.75;;;;;;;;5057650;28;45428;-81
2022/12/09 04:15:58;;;;;;;;;29.00;21.50;;;;;;;;5046303;28;45571;-81
2022/12/09 04:18:23;;;;;;;;;27.00;23.50;;;;;;;;5058609;28;45464;-82
2022/12/09 04:20:49;;;;;;;;;30.75;20.00;;;;;;;;5039839;28;45701;-81
2022/12/09 04:23:14;;;;;;;;;31.50;18.25;;;;;;;;5034350;28;46458;-82
2022/12/09 04:25:39;;;;;;;;;34.50;24.50;;;;;;;;5059015;28;45853;-81
2022/12/09 04:28:05;;;;;;;;;26.25;21.75;;;;;;;;5053558;28;45452;-82
2022/12/09 04:30:30;;;;;;;;;28.75;21.00;;;;;;;;5035478;28;45849;-80
2022/12/09 04:32:57;;;;;;;;;24.50;17.50;;;;;;;;5039299;28;46643;-82
2022/12/09 04:35:23;;;;;;;;;26.25;20.75;;;;;;;;5056092;28;45807;-81
2022/12/09 04:37:48;;;;;;;;;29.00;17.25;;;;;;;;5038982;28;45501;-82
2022/12/09 04:40:20;;;;;;;;;33.75;20.00;;;;;;;;5058603;28;45429;-80
2022/12/09 04:42:46;;;;;;;;;30.00;19.50;;;;;;;;5059581;28;45784;-82
2022/12/09 04:45:11;;;;;;;;;19.25;9.50;;;;;;;;5063712;28;45790;-81
2022/12/09 04:47:38;;;;;;;;;29.25;20.25;;;;;;;;5062725;28;44806;-80
2022/12/09 04:50:04;;;;;;;;;25.50;20.50;;;;;;;;5070639;28;45110;-81
2022/12/09 04:52:30;;;;;;;;;24.00;20.00;;;;;;;;5039552;28;46841;-80
2022/12/09 04:55:01;;;;;;;;;35.75;25.25;;;;;;;;5051710;28;45599;-82
2022/12/09 04:57:28;;;;;;;;;30.25;21.50;;;;;;;;5062057;28;45456;-84
2022/12/09 04:59:54;;;;;;;;;25.50;22.50;;;;;;;;5049020;28;45623;-82
2022/12/09 05:02:21;;;;;;;;;28.00;22.75;;;;;;;;5056208;28;45442;-81
2022/12/09 05:04:47;;;;;;;;;30.25;19.25;;;;;;;;5043137;28;45376;-81
2022/12/09 05:07:15;;;;;;;;;21.50;20.00;;;;;;;;5041348;28;45481;-79
2022/12/09 05:09:40;;;;;;;;;33.00;23.25;;;;;;;;5039719;28;45400;-80
2022/12/09 05:12:09;;;;;;;;;24.75;20.25;;;;;;;;5056032;28;45464;-83
2022/12/09 05:14:35;;;;;;;;;28.25;22.75;;;;;;;;5039473;28;45482;-86
2022/12/09 05:17:01;;;;;;;;;23.00;16.00;;;;;;;;5042515;28;45439;-80
2022/12/09 05:19:26;;;;;;;;;24.75;20.25;;;;;;;;5055375;28;45825;-83
2022/12/09 05:21:52;;;;;;;;;22.25;15.00;;;;;;;;5061166;28;45836;-84
2022/12/09 05:24:17;;;;;;;;;27.25;20.25;;;;;;;;5055607;28;45372;-82
2022/12/09 05:26:43;;;;;;;;;25.25;20.25;;;;;;;;5055289;28;45218;-83
2022/12/09 05:29:08;;;;;;;;;31.50;23.00;;;;;;;;5061304;28;45581;-82
2022/12/09 05:31:34;;;;;;;;;25.75;20.00;;;;;;;;5051176;28;47909;-82
2022/12/09 05:33:59;;;;;;;;;19.50;19.00;;;;;;;;5064373;28;46184;-82
2022/12/09 05:36:28;;;;;;;;;21.00;18.50;;;;;;;;5068954;28;45498;-80
2022/12/09 05:38:54;;;;;;;;;29.75;26.00;;;;;;;;5073600;28;44726;-81
2022/12/09 05:41:19;;;;;;;;;20.75;17.75;;;;;;;;5058858;28;45716;-81
2022/12/09 05:43:45;;;;;;;;;18.25;16.00;;;;;;;;5067351;28;44991;-86
2022/12/09 05:46:12;;;;;;;;;33.75;23.00;;;;;;;;5079502;28;45235;-85
2022/12/09 05:48:40;;;;;;;;;23.33;19.00;;;;;;;;5067286;28;45241;-85
2022/12/09 05:51:11;;;;;;;;;24.50;19.00;;;;;;;;5053647;28;47003;-86
2022/12/09 05:53:36;;;;;;;;;21.75;16.75;;;;;;;;5052025;28;45844;-88
2022/12/09 05:56:02;;;;;;;;;23.00;19.00;;;;;;;;5045216;28;44791;-87
2022/12/09 05:58:46;;;;;;;;;22.75;14.00;;;;;;;;5051025;28;45607;-88
2022/12/09 06:01:18;;;;;;;;;27.25;21.00;;;;;;;;5054597;28;45492;-85
2022/12/09 06:03:51;;;;;;;;;27.00;23.50;;;;;;;;5052632;28;45115;-85
2022/12/09 06:06:20;;;;;;;;;18.50;13.25;;;;;;;;5070966;28;45820;-85
2022/12/09 06:08:48;;;;;;;;;25.25;18.75;;;;;;;;5061435;28;45505;-84
2022/12/09 06:11:16;;;;;;;;;30.25;21.75;;;;;;;;5061942;28;45482;-87
2022/12/09 06:19:34;;;;;;;;;45.00;27.50;;;;;;;;5037181;28;45560;-80
2022/12/09 06:21:59;;;;;;;;;31.50;28.75;;;;;;;;5041706;28;48192;-79
2022/12/09 06:24:34;;;;;;;;;34.50;25.00;;;;;;;;5062186;28;45473;-81
2022/12/09 06:27:18;;;;;;;;;28.50;23.25;;;;;;;;5061978;28;45509;-82
2022/12/09 06:30:05;;;;;;;;;29.00;20.25;;;;;;;;5055975;28;45598;-80
2022/12/09 06:32:30;;;;;;;;;21.75;16.25;;;;;;;;5039816;28;46793;-83
2022/12/09 06:34:56;;;;;;;;;36.50;27.00;;;;;;;;5040736;28;45452;-84
2022/12/09 06:37:35;;;;;;;;;30.00;19.00;;;;;;;;5039278;28;45430;-88
2022/12/09 06:40:13;;;;;;;;;33.50;24.25;;;;;;;;5046616;28;45464;-83
2022/12/09 06:42:38;;;;;;;;;35.50;24.75;;;;;;;;5043227;28;48356;-79
2022/12/09 06:45:07;;;;;;;;;40.75;32.50;;;;;;;;5063623;28;45217;-84
2022/12/09 06:47:41;;;;;;;;;38.50;24.00;;;;;;;;5039847;28;45787;-85
2022/12/09 06:50:15;;;;;;;;;33.75;20.50;;;;;;;;5049398;28;45595;-84
2022/12/09 06:52:45;;;;;;;;;31.25;26.25;;;;;;;;5072268;28;45363;-85
2022/12/09 06:55:16;;;;;;;;;29.75;22.75;;;;;;;;5071048;28;45587;-85
2022/12/09 06:57:42;;;;;;;;;33.00;29.75;;;;;;;;5071191;28;45322;-82
2022/12/09 07:00:10;;;;;;;;;30.00;26.25;;;;;;;;5051664;28;45660;-84
2022/12/09 07:02:53;;;;;;;;;26.75;20.75;;;;;;;;5060817;28;45581;-85
2022/12/09 07:05:24;;;;;;;;;34.00;25.50;;;;;;;;5053139;28;45875;-85
2022/12/09 07:07:58;;;;;;;;;28.75;23.25;;;;;;;;5049913;28;44805;-84
2022/12/09 07:11:11;;;;;;;;;;;;;;;;;;;;;
2022/12/09 07:13:49;;;;;;;;;27.75;24.75;;;;;;;;5051814;28;75872;-85
2022/12/09 07:16:24;;;;;;;;;38.00;26.50;;;;;;;;5056179;28;45528;-82
2022/12/09 07:19:22;;;;;;;;;;;;;;;;;;;;;
2022/12/09 07:32:03;;;;;;;;;31.25;22.75;;;;;;;;4977907;28;45512;-82
2022/12/09 07:34:30;;;;;;;;;32.75;26.75;;;;;;;;4979047;28;46117;-83
2022/12/09 07:36:59;;;;;;;;;30.75;21.00;;;;;;;;5021495;28;45941;-83
2022/12/09 07:39:25;;;;;;;;;23.50;18.25;;;;;;;;5042117;28;45730;-82
2022/12/09 07:41:52;;;;;;;;;28.00;19.00;;;;;;;;5045588;28;45561;-82
2022/12/09 07:44:32;;;;;;;;;29.00;20.25;;;;;;;;5058895;28;45723;-85
2022/12/09 07:47:08;;;;;;;;;25.00;22.00;;;;;;;;5066132;28;46186;-84
2022/12/09 07:49:34;;;;;;;;;29.75;21.75;;;;;;;;5037854;28;45391;-84
2022/12/09 07:52:01;;;;;;;;;27.50;19.75;;;;;;;;5042474;28;45886;-84
2022/12/09 07:54:32;;;;;;;;;21.75;17.50;;;;;;;;5049051;28;45428;-83
2022/12/09 07:57:06;;;;;;;;;27.50;21.25;;;;;;;;5059831;28;46251;-83
2022/12/09 07:59:34;;;;;;;;;23.25;18.75;;;;;;;;5069714;28;45446;-82
2022/12/09 08:02:01;;;;;;;;;23.50;21.25;;;;;;;;5052321;28;45593;-84
2022/12/09 08:04:30;;;;;;;;;23.25;19.75;;;;;;;;5066251;28;45554;-84
2022/12/09 08:06:59;;;;;;;;;18.50;16.50;;;;;;;;5051388;28;47391;-85
2022/12/09 08:09:25;;;;;;;;;28.50;22.25;;;;;;;;5039906;28;45408;-85
2022/12/09 08:11:51;;;;;;;;;30.75;24.75;;;;;;;;5057175;28;44796;-84
2022/12/09 08:14:20;;;;;;;;;26.00;25.00;;;;;;;;5050819;28;45360;-85
2022/12/09 08:16:47;;;;;;;;;29.50;23.25;;;;;;;;5081570;28;45302;-84
2022/12/09 08:19:13;;;;;;;;;30.25;26.00;;;;;;;;5063259;28;45558;-83
2022/12/09 08:21:42;;;;;;;;;21.25;16.50;;;;;;;;5068863;28;45450;-84
2022/12/09 08:24:13;;;;;;;;;25.50;22.50;;;;;;;;5050642;28;45601;-84
2022/12/09 08:26:39;;;;;;;;;28.25;25.25;;;;;;;;5061095;28;45512;-85
2022/12/09 08:29:09;;;;;;;;;21.50;17.75;;;;;;;;5039960;28;45478;-82
2022/12/09 08:31:34;;;;;;;;;22.75;18.75;;;;;;;;5040197;28;44959;-82
2022/12/09 08:34:05;;;;;;;;;29.00;23.00;;;;;;;;5055947;28;46097;-83
2022/12/09 08:36:31;;;;;;;;;20.75;18.75;;;;;;;;5072997;28;45419;-84
2022/12/09 08:39:00;;;;;;;;;30.00;23.75;;;;;;;;5050452;28;45376;-81
2022/12/09 08:41:36;;;;;;;;;29.50;24.00;;;;;;;;5062108;28;45845;-83
2022/12/09 08:44:09;;;;;;;;;25.75;23.75;;;;;;;;5040474;28;45480;-84
2022/12/09 08:46:35;;;;;;;;;26.50;23.25;;;;;;;;5041815;28;48070;-83
2022/12/09 08:49:09;;;;;;;;;29.50;22.50;;;;;;;;5071238;28;45936;-82
2022/12/09 08:51:35;;;;;;;;;26.50;23.75;;;;;;;;5051203;28;44928;-84
2022/12/09 08:54:36;;;;;;;;;;;;;;;;;;;;;
2022/12/09 08:57:14;;;;;;;;;;;;;;;;;;;;;
2022/12/09 08:59:42;;;;;;;;;39.00;24.75;;;;;;;;5074125;28;72180;-86
2022/12/09 09:02:19;;;;;;;;;30.00;27.75;;;;;;;;5084087;28;45750;-84
2022/12/09 09:04:45;;;;;;;;;31.75;24.75;;;;;;;;5076739;28;45383;-86
2022/12/09 09:07:12;;;;;;;;;33.75;26.00;;;;;;;;5071051;28;45284;-81
2022/12/09 09:09:39;;;;;;;;;38.00;31.25;;;;;;;;5065259;28;45283;-83
2022/12/09 09:12:09;;;;;;;;;30.00;21.50;;;;;;;;5073022;28;45941;-85
2022/12/09 09:14:38;;;;;;;;;30.25;25.00;;;;;;;;5070244;28;45735;-84
2022/12/09 09:17:08;;;;;;;;;31.00;25.50;;;;;;;;5072097;28;45369;-86
2022/12/09 09:19:33;;;;;;;;;33.25;25.75;;;;;;;;5054197;28;45560;-83
2022/12/09 09:22:04;;;;;;;;;33.00;27.00;;;;;;;;5075450;28;45195;-83
2022/12/09 09:24:32;;;;;;;;;31.50;27.50;;;;;;;;5080570;28;44831;-84
2022/12/09 09:27:00;;;;;;;;;33.00;29.00;;;;;;;;5072058;28;45624;-83
2022/12/09 09:29:25;;;;;;;;;32.50;22.00;;;;;;;;5051005;28;44771;-83
2022/12/09 09:32:16;;;;;;;;;32.33;23.00;;;;;;;;5048405;28;45429;-84
2022/12/09 09:34:51;;;;;;;;;28.25;23.25;;;;;;;;5055122;28;46000;-83
2022/12/09 09:37:28;;;;;;;;;27.25;22.00;;;;;;;;5033914;28;45604;-83
2022/12/09 09:40:10;;;;;;;;;34.50;26.50;;;;;;;;5034276;28;45632;-84
2022/12/09 09:42:46;;;;;;;;;24.75;21.00;;;;;;;;5063800;28;45580;-82
2022/12/09 09:45:17;;;;;;;;;25.50;21.25;;;;;;;;5058350;28;45821;-85
2022/12/09 09:47:49;;;;;;;;;25.33;21.33;;;;;;;;5032255;28;47195;-82
2022/12/09 09:50:34;;;;;;;;;29.33;24.00;;;;;;;;5067577;28;45821;-84
2022/12/09 09:53:07;;;;;;;;;30.00;25.33;;;;;;;;5035722;28;45592;-84
2022/12/09 09:55:51;;;;;;;;;25.33;24.67;;;;;;;;5061771;28;45563;-84
2022/12/09 09:58:37;;;;;;;;;26.33;21.00;;;;;;;;5057089;28;45545;-84
2022/12/09 10:01:36;;;;;;;;;25.33;20.00;;;;;;;;5045944;28;45759;-83
2022/12/09 10:04:20;;;;;;;;;27.33;21.67;;;;;;;;5018429;28;44910;-82
2022/12/09 10:07:09;;;;;;;;;28.33;23.00;;;;;;;;5058732;28;45453;-84
2022/12/09 10:10:21;;;;;;;;;29.00;26.00;;;;;;;;5048821;28;45151;-83
2022/12/09 10:12:55;;;;;;;;;31.00;27.33;;;;;;;;5034680;28;44864;-85
2022/12/09 10:15:48;;;;;;;;;24.25;23.00;;;;;;;;5037040;28;46467;-80
2022/12/09 10:18:24;;;;;;;;;37.00;34.00;;;;;;;;5053109;28;45728;-85
2022/12/09 10:20:53;;;;;;;;;32.33;24.33;;;;;;;;5051970;28;45235;-83
2022/12/09 10:23:34;;;;;;;;;32.00;30.33;;;;;;;;5035788;28;45692;-85
2022/12/09 10:26:07;;;;;;;;;31.50;26.25;;;;;;;;5043673;28;45793;-85
2022/12/09 10:28:40;;;;;;;;;29.33;24.67;;;;;;;;5037977;28;46416;-84
2022/12/09 10:31:22;;;;;;;;;;;;;;;;;;;;;
2022/12/09 10:33:48;;;;;;;;;25.67;23.67;;;;;;;;5052606;28;72020;-83
2022/12/09 10:36:42;;;;;;;;;22.67;20.67;;;;;;;;5061823;28;45060;-83
2022/12/09 10:39:19;;;;;;;;;35.67;27.33;;;;;;;;5060336;28;45920;-84
2022/12/09 10:44:43;;;;;;;;;28.67;22.67;;;;;;;;5057662;28;45399;-84
2022/12/09 10:47:23;;;;;;;;;36.00;29.67;;;;;;;;5030124;28;45874;-84
2022/12/09 10:50:06;;;;;;;;;44.33;34.00;;;;;;;;5054082;28;46359;-82
2022/12/09 10:52:39;;;;;;;;;29.67;27.33;;;;;;;;5053728;28;46669;-80
2022/12/09 10:55:08;;;;;;;;;35.67;31.00;;;;;;;;5024345;28;45846;-85
2022/12/09 10:57:40;;;;;;;;;33.75;27.75;;;;;;;;5044025;28;45285;-84
2022/12/09 11:00:18;;;;;;;;;45.67;31.67;;;;;;;;5038007;28;45672;-86
2022/12/09 11:02:49;;;;;;;;;30.33;27.67;;;;;;;;5049515;28;45789;-82
2022/12/09 11:05:22;;;;;;;;;30.00;26.33;;;;;;;;5047193;28;45838;-84
2022/12/09 11:07:55;;;;;;;;;27.67;24.67;;;;;;;;5050841;28;45452;-88
2022/12/09 11:10:22;;;;;;;;;34.00;23.33;;;;;;;;5060184;28;45903;-88
2022/12/09 11:12:51;;;;;;;;;31.00;26.67;;;;;;;;5047070;28;47897;-84
2022/12/09 11:15:46;;;;;;;;;33.00;28.67;;;;;;;;5047289;28;45342;-84
2022/12/09 11:18:24;;;;;;;;;23.33;16.00;;;;;;;;4989842;28;45443;-82
2022/12/09 11:20:57;;;;;;;;;26.00;22.33;;;;;;;;5051938;28;45737;-80
2022/12/09 11:23:26;;;;;;;;;27.67;23.67;;;;;;;;5048206;28;47325;-84
2022/12/09 11:26:01;;;;;;;;;35.67;29.00;;;;;;;;5066231;28;45457;-83
2022/12/09 11:28:28;;;;;;;;;36.00;27.00;;;;;;;;5045862;28;45482;-82
2022/12/09 11:31:23;;;;;;;;;28.33;25.33;;;;;;;;5062747;28;45232;-84
2022/12/09 11:33:48;;;;;;;;;41.00;31.33;;;;;;;;5055045;28;45754;-81
2022/12/09 11:36:18;;;;;;;;;35.00;28.33;;;;;;;;5040276;28;45542;-84
2022/12/09 11:38:48;;;;;;;;;34.00;25.00;;;;;;;;5056132;28;45786;-85
2022/12/09 11:44:30;;;;;;;;;30.67;24.67;;;;;;;;5073835;28;45995;-84
2022/12/09 11:47:01;;;;;;;;;38.33;30.00;;;;;;;;5044312;28;45681;-85
2022/12/09 11:49:40;;;;;;;;;41.67;29.00;;;;;;;;5049985;28;45595;-83
2022/12/09 11:52:39;;;;;;;;;31.00;26.67;;;;;;;;5053490;28;45667;-86
2022/12/09 11:55:35;;;;;;;;;33.00;29.33;;;;;;;;4968517;28;46079;-86
2022/12/09 12:01:42;;;;;;;;;;;;;;;;;;;;;
2022/12/09 12:04:22;;;;;;;;;36.33;27.33;;;;;;;;4895082;29;73310;-84
2022/12/09 12:10:21;;;;;;;;;42.33;29.00;;;;;;;;5007751;28;45624;-87
2022/12/09 12:16:32;;;;;;;;;33.67;26.67;;;;;;;;4955225;28;45613;-88
2022/12/09 12:19:18;;;;;;;;;40.00;30.00;;;;;;;;4958910;28;45176;-85
2022/12/09 12:25:08;;;;;;;;;35.00;28.00;;;;;;;;5013398;28;46005;-84
2022/12/09 12:28:10;;;;;;;;;31.00;23.33;;;;;;;;5063802;28;45554;-84
2022/12/09 12:31:14;;;;;;;;;34.50;26.50;;;;;;;;5059881;28;46055;-85
2022/12/09 12:33:58;;;;;;;;;27.33;19.67;;;;;;;;5068109;28;45809;-84
2022/12/09 12:36:50;;;;;;;;;32.00;24.67;;;;;;;;5054095;28;45570;-84
2022/12/09 12:39:34;;;;;;;;;29.33;24.67;;;;;;;;5053192;28;45539;-84
2022/12/09 12:42:18;;;;;;;;;24.33;21.67;;;;;;;;5050470;28;45563;-85
2022/12/09 12:48:24;;;;;;;;;28.75;20.75;;;;;;;;5066730;28;45836;-85
2022/12/09 12:51:11;;;;;;;;;24.00;20.33;;;;;;;;5066535;28;45561;-84
2022/12/09 12:53:58;;;;;;;;;27.00;25.00;;;;;;;;5049715;28;46226;-85
2022/12/09 13:00:02;;;;;;;;;30.67;29.33;;;;;;;;5001514;28;45775;-85
2022/12/09 13:03:02;;;;;;;;;23.33;20.00;;;;;;;;4984409;28;45534;-86
2022/12/09 13:05:29;;;;;;;;;21.67;20.67;;;;;;;;5035900;28;46128;-85
2022/12/09 13:08:02;;;;;;;;;24.67;23.00;;;;;;;;5043229;28;46358;-85
2022/12/09 13:11:20;;;;;;;;;;;;;;;;;;;;;
2022/12/09 13:13:48;;;;;;;;;20.00;14.50;;;;;;;;5064936;28;46078;-85
2022/12/09 13:16:26;;;;;;;;;29.25;25.75;;;;;;;;5062190;28;45555;-85
2022/12/09 13:19:01;;;;;;;;;29.00;26.67;;;;;;;;5064524;28;45837;-86
2022/12/09 13:21:47;;;;;;;;;35.33;28.00;;;;;;;;5049957;28;44878;-85
2022/12/09 13:24:25;;;;;;;;;27.67;20.33;;;;;;;;5054293;28;45612;-84
2022/12/09 13:27:08;;;;;;;;;24.25;19.25;;;;;;;;5059932;28;46211;-84
2022/12/09 13:29:46;;;;;;;;;29.25;23.50;;;;;;;;5048306;28;45439;-85
2022/12/09 13:32:34;;;;;;;;;31.00;23.75;;;;;;;;5042271;28;45853;-86
2022/12/09 13:38:38;;;;;;;;;30.67;28.67;;;;;;;;4989343;28;45365;-85
2022/12/09 13:41:27;;;;;;;;;37.50;29.50;;;;;;;;4969881;28;45635;-85
2022/12/09 13:44:00;;;;;;;;;34.00;26.33;;;;;;;;5022668;28;45835;-86
2022/12/09 13:46:47;;;;;;;;;;;;;;;;;;;;;
2022/12/09 13:49:39;;;;;;;;;33.50;24.75;;;;;;;;5045646;28;74757;-86
2022/12/09 13:52:08;;;;;;;;;29.67;24.67;;;;;;;;5038240;28;45434;-83
2022/12/09 13:54:53;;;;;;;;;28.25;24.50;;;;;;;;5021077;28;45149;-84
2022/12/09 14:00:46;;;;;;;;;21.00;19.33;;;;;;;;4967485;28;46439;-86
2022/12/09 14:03:24;;;;;;;;;30.67;21.00;;;;;;;;5037102;28;45431;-85
2022/12/09 14:05:55;;;;;;;;;34.33;26.67;;;;;;;;5037400;28;45669;-84
2022/12/09 14:08:28;;;;;;;;;29.33;22.67;;;;;;;;5035477;28;45767;-85
2022/12/09 14:10:58;;;;;;;;;28.33;22.67;;;;;;;;5044030;28;45940;-85
2022/12/09 14:13:53;;;;;;;;;31.67;23.67;;;;;;;;5048717;28;45470;-85
2022/12/09 14:20:01;;;;;;;;;29.00;23.33;;;;;;;;4971096;28;45464;-86
2022/12/09 14:23:04;;;;;;;;;29.67;24.67;;;;;;;;4971337;28;47328;-86
2022/12/09 14:25:32;;;;;;;;;31.67;25.67;;;;;;;;5030106;28;45666;-85
2022/12/09 14:28:14;;;;;;;;;32.25;24.00;;;;;;;;5028880;28;45530;-86
2022/12/09 14:30:42;;;;;;;;;34.50;27.25;;;;;;;;5025952;28;45552;-84
2022/12/09 14:33:27;;;;;;;;;31.25;27.00;;;;;;;;5030960;28;46576;-87
2022/12/09 14:35:55;;;;;;;;;35.75;27.50;;;;;;;;5031254;28;45572;-84
2022/12/09 14:38:28;;;;;;;;;36.75;28.25;;;;;;;;5009384;28;45993;-85
2022/12/09 14:41:14;;;;;;;;;28.75;25.75;;;;;;;;5017444;28;45799;-83
2022/12/09 14:43:42;;;;;;;;;34.25;28.25;;;;;;;;5014157;28;48184;-84
2022/12/09 14:46:23;;;;;;;;;31.50;27.00;;;;;;;;5020069;28;45356;-85
2022/12/09 14:49:15;;;;;;;;;25.25;20.25;;;;;;;;5013979;28;45798;-80
2022/12/09 14:51:51;;;;;;;;;24.33;21.00;;;;;;;;5004417;28;45503;-80
2022/12/09 14:54:19;;;;;;;;;30.00;24.75;;;;;;;;5010705;28;45603;-81
2022/12/09 14:56:48;;;;;;;;;23.33;23.00;;;;;;;;5013514;28;45767;-79
2022/12/09 14:59:16;;;;;;;;;35.75;26.00;;;;;;;;5024869;28;45408;-80
2022/12/09 15:01:46;;;;;;;;;26.25;24.00;;;;;;;;5004142;28;45633;-82
2022/12/09 15:04:20;;;;;;;;;25.67;23.67;;;;;;;;5009089;28;46091;-80
2022/12/09 15:06:45;;;;;;;;;28.33;26.33;;;;;;;;5015675;28;45759;-80
2022/12/09 15:09:12;;;;;;;;;28.67;21.67;;;;;;;;5020094;28;45463;-81
2022/12/09 15:11:38;;;;;;;;;26.00;23.67;;;;;;;;5012428;28;45604;-80
2022/12/09 15:16:50;;;;;;;;;51.50;39.00;;;;;;;;5017814;28;45768;-80
2022/12/09 15:19:18;;;;;;;;;32.00;24.25;;;;;;;;5018028;28;45532;-79
2022/12/09 15:21:48;;;;;;;;;37.75;28.50;;;;;;;;5005683;28;45944;-81
2022/12/09 15:24:14;;;;;;;;;30.00;23.75;;;;;;;;5009979;28;45525;-79
2022/12/09 15:26:40;;;;;;;;;24.25;20.50;;;;;;;;5013409;28;45947;-80
2022/12/09 15:29:05;;;;;;;;;24.67;22.00;;;;;;;;5028812;28;45568;-80
2022/12/09 15:31:31;;;;;;;;;31.00;24.33;;;;;;;;5041848;28;46940;-79
2022/12/09 15:33:58;;;;;;;;;28.33;23.33;;;;;;;;5052368;28;46174;-80
2022/12/09 15:36:32;;;;;;;;;34.33;24.33;;;;;;;;5053221;28;45919;-80
2022/12/09 15:39:21;;;;;;;;;30.00;24.50;;;;;;;;5032695;28;45395;-79
2022/12/09 15:42:06;;;;;;;;;32.00;27.25;;;;;;;;5036834;28;45739;-80
2022/12/09 15:44:36;;;;;;;;;22.50;19.00;;;;;;;;5051968;28;46639;-80
2022/12/09 15:47:17;;;;;;;;;32.75;26.50;;;;;;;;5054838;28;46114;-85
2022/12/09 15:50:06;;;;;;;;;28.50;26.50;;;;;;;;5046702;28;45771;-82
2022/12/09 15:52:40;;;;;;;;;28.50;20.00;;;;;;;;5039077;28;46214;-82